KHOB/HOB METAR and TAF weather

Enter ICAO airport designator
Station Type Date Time Source
KHOB METAR 2019/04/19 10:35 UTC NOAA

KHOB 191035Z AUTO 35006KT 10SM CLR 05/00 A3022 RMK AO2


Station Type Date Time Source
KHOB Decoded METAR 2019/04/19 10:35 UTC NOAA

Hobbs / Lea County, NM, United States (KHOB) 32-41N 103-13W
Apr 19, 2019 - 06:35 AM EDT / 2019.04.19 1035 UTC
Wind: from the N (350 degrees) at 7 MPH (6 KT):0
Visibility: 10 mile(s):0
Sky conditions: clear
Temperature: 41 F (5 C)
Dew Point: 32 F (0 C)
Relative Humidity: 70%
Pressure (altimeter): 30.22 in. Hg (1023 hPa)
ob: KHOB 191035Z AUTO 35006KT 10SM CLR 05/00 A3022 RMK AO2
cycle: 10

Station Type Date Time Source
KHOB TAF 2019/04/19 06:22 UTC NOAA

TAF KHOB 190520Z 1906/2006 04009KT P6SM SKC
FM191800 18006KT P6SM SKC

Example: see airport list